sensor_id;sensor_type;location;lat;lon;timestamp;temperature;humidity
46440;DHT22;32138;50.966;6.968;2023-12-20T00:01:01;9.20;99.90
46440;DHT22;32138;50.966;6.968;2023-12-20T00:02:32;9.20;99.90
46440;DHT22;32138;50.966;6.968;2023-12-20T00:04:03;9.20;99.90
46440;DHT22;32138;50.966;6.968;2023-12-20T00:05:34;9.20;99.90
46440;DHT22;32138;50.966;6.968;2023-12-20T00:07:06;9.20;99.90
46440;DHT22;32138;50.966;6.968;2023-12-20T00:08:37;9.30;99.90
46440;DHT22;32138;50.966;6.968;2023-12-20T00:10:08;9.20;99.90
46440;DHT22;32138;50.966;6.968;2023-12-20T00:11:38;9.10;99.90
46440;DHT22;32138;50.966;6.968;2023-12-20T00:13:10;9.20;99.90
46440;DHT22;32138;50.966;6.968;2023-12-20T00:14:41;9.20;99.90
46440;DHT22;32138;50.966;6.968;2023-12-20T00:16:11;9.20;99.90
46440;DHT22;32138;50.966;6.968;2023-12-20T00:17:42;9.20;99.90
46440;DHT22;32138;50.966;6.968;2023-12-20T00:19:13;9.20;99.90
46440;DHT22;32138;50.966;6.968;2023-12-20T00:20:43;9.20;99.90
46440;DHT22;32138;50.966;6.968;2023-12-20T00:22:14;9.10;99.90
46440;DHT22;32138;50.966;6.968;2023-12-20T00:23:45;9.20;99.90
46440;DHT22;32138;50.966;6.968;2023-12-20T00:25:16;9.30;99.90
46440;DHT22;32138;50.966;6.968;2023-12-20T00:26:46;9.30;99.90
46440;DHT22;32138;50.966;6.968;2023-12-20T00:28:17;9.30;99.90
46440;DHT22;32138;50.966;6.968;2023-12-20T00:29:48;9.30;99.90
46440;DHT22;32138;50.966;6.968;2023-12-20T00:31:20;9.20;99.90
46440;DHT22;32138;50.966;6.968;2023-12-20T00:32:51;9.30;99.90
46440;DHT22;32138;50.966;6.968;2023-12-20T00:34:21;9.30;99.90
46440;DHT22;32138;50.966;6.968;2023-12-20T00:35:52;9.30;99.90
46440;DHT22;32138;50.966;6.968;2023-12-20T00:37:23;9.30;99.90
46440;DHT22;32138;50.966;6.968;2023-12-20T00:38:54;9.30;99.90
46440;DHT22;32138;50.966;6.968;2023-12-20T00:40:25;9.30;99.90
46440;DHT22;32138;50.966;6.968;2023-12-20T00:41:55;9.30;99.90
46440;DHT22;32138;50.966;6.968;2023-12-20T00:43:26;9.30;99.90
46440;DHT22;32138;50.966;6.968;2023-12-20T00:44:58;9.30;99.90
46440;DHT22;32138;50.966;6.968;2023-12-20T00:46:29;9.30;99.90
46440;DHT22;32138;50.966;6.968;2023-12-20T00:48:00;9.20;99.90
46440;DHT22;32138;50.966;6.968;2023-12-20T00:49:30;9.30;99.90
46440;DHT22;32138;50.966;6.968;2023-12-20T00:51:01;9.40;99.90
46440;DHT22;32138;50.966;6.968;2023-12-20T00:52:32;9.40;99.90
46440;DHT22;32138;50.966;6.968;2023-12-20T00:54:03;9.30;99.90
46440;DHT22;32138;50.966;6.968;2023-12-20T00:55:33;9.30;99.90
46440;DHT22;32138;50.966;6.968;2023-12-20T00:57:04;9.40;99.90
46440;DHT22;32138;50.966;6.968;2023-12-20T00:58:35;9.40;99.90
46440;DHT22;32138;50.966;6.968;2023-12-20T01:00:06;9.30;99.90
46440;DHT22;32138;50.966;6.968;2023-12-20T01:01:40;9.40;99.90
46440;DHT22;32138;50.966;6.968;2023-12-20T01:03:10;9.40;99.90
46440;DHT22;32138;50.966;6.968;2023-12-20T01:04:41;9.40;99.90
46440;DHT22;32138;50.966;6.968;2023-12-20T01:06:12;9.30;99.90
46440;DHT22;32138;50.966;6.968;2023-12-20T01:07:43;9.40;99.90
46440;DHT22;32138;50.966;6.968;2023-12-20T01:09:13;9.30;99.90
46440;DHT22;32138;50.966;6.968;2023-12-20T01:10:44;9.30;99.90
46440;DHT22;32138;50.966;6.968;2023-12-20T01:12:17;9.30;99.90
46440;DHT22;32138;50.966;6.968;2023-12-20T01:13:47;9.20;99.90
46440;DHT22;32138;50.966;6.968;2023-12-20T01:15:18;9.20;99.90
46440;DHT22;32138;50.966;6.968;2023-12-20T01:16:49;9.20;99.90
46440;DHT22;32138;50.966;6.968;2023-12-20T01:18:19;9.20;99.90
46440;DHT22;32138;50.966;6.968;2023-12-20T01:19:50;9.10;99.90
46440;DHT22;32138;50.966;6.968;2023-12-20T01:21:21;9.20;99.90
46440;DHT22;32138;50.966;6.968;2023-12-20T01:22:52;9.10;99.90
46440;DHT22;32138;50.966;6.968;2023-12-20T01:24:23;9.10;99.90
46440;DHT22;32138;50.966;6.968;2023-12-20T01:25:53;9.10;99.90
46440;DHT22;32138;50.966;6.968;2023-12-20T01:27:24;9.10;99.90
46440;DHT22;32138;50.966;6.968;2023-12-20T01:28:55;9.10;99.90
46440;DHT22;32138;50.966;6.968;2023-12-20T01:30:26;9.10;99.90
46440;DHT22;32138;50.966;6.968;2023-12-20T01:31:56;9.20;99.90
46440;DHT22;32138;50.966;6.968;2023-12-20T01:33:27;9.10;99.90
46440;DHT22;32138;50.966;6.968;2023-12-20T01:34:58;9.20;99.90
46440;DHT22;32138;50.966;6.968;2023-12-20T01:36:29;9.20;99.90
46440;DHT22;32138;50.966;6.968;2023-12-20T01:37:59;9.20;99.90
46440;DHT22;32138;50.966;6.968;2023-12-20T01:39:30;9.20;99.90
46440;DHT22;32138;50.966;6.968;2023-12-20T01:41:01;9.10;99.90
46440;DHT22;32138;50.966;6.968;2023-12-20T01:42:31;9.20;99.90
46440;DHT22;32138;50.966;6.968;2023-12-20T01:44:02;9.20;99.90
46440;DHT22;32138;50.966;6.968;2023-12-20T01:45:34;9.20;99.90
46440;DHT22;32138;50.966;6.968;2023-12-20T01:47:05;9.20;99.90
46440;DHT22;32138;50.966;6.968;2023-12-20T01:48:36;9.30;99.90
46440;DHT22;32138;50.966;6.968;2023-12-20T01:50:07;9.10;99.90
46440;DHT22;32138;50.966;6.968;2023-12-20T01:51:38;9.20;99.90
46440;DHT22;32138;50.966;6.968;2023-12-20T01:53:10;9.20;99.90
46440;DHT22;32138;50.966;6.968;2023-12-20T01:54:42;9.20;99.90
46440;DHT22;32138;50.966;6.968;2023-12-20T01:56:13;9.10;99.90
46440;DHT22;32138;50.966;6.968;2023-12-20T01:57:46;9.10;99.90
46440;DHT22;32138;50.966;6.968;2023-12-20T01:59:19;9.00;99.90
46440;DHT22;32138;50.966;6.968;2023-12-20T02:00:50;9.10;99.90
46440;DHT22;32138;50.966;6.968;2023-12-20T02:02:21;9.00;99.90
46440;DHT22;32138;50.966;6.968;2023-12-20T02:03:52;9.00;99.90
46440;DHT22;32138;50.966;6.968;2023-12-20T02:05:23;8.90;99.90
46440;DHT22;32138;50.966;6.968;2023-12-20T02:06:55;9.00;99.90
46440;DHT22;32138;50.966;6.968;2023-12-20T02:08:26;9.00;99.90
46440;DHT22;32138;50.966;6.968;2023-12-20T02:09:57;9.00;99.90
46440;DHT22;32138;50.966;6.968;2023-12-20T02:11:28;9.00;99.90
46440;DHT22;32138;50.966;6.968;2023-12-20T02:12:59;8.80;99.90
46440;DHT22;32138;50.966;6.968;2023-12-20T02:14:30;8.80;99.90
46440;DHT22;32138;50.966;6.968;2023-12-20T02:16:01;8.70;99.90
46440;DHT22;32138;50.966;6.968;2023-12-20T02:17:32;8.60;99.90
46440;DHT22;32138;50.966;6.968;2023-12-20T02:19:05;8.70;99.90
46440;DHT22;32138;50.966;6.968;2023-12-20T02:20:39;8.70;99.90
46440;DHT22;32138;50.966;6.968;2023-12-20T02:22:10;8.70;99.90
46440;DHT22;32138;50.966;6.968;2023-12-20T02:23:41;8.60;99.90
46440;DHT22;32138;50.966;6.968;2023-12-20T02:25:12;8.50;99.90
46440;DHT22;32138;50.966;6.968;2023-12-20T02:26:43;8.50;99.90
46440;DHT22;32138;50.966;6.968;2023-12-20T02:28:14;8.50;99.90
46440;DHT22;32138;50.966;6.968;2023-12-20T02:29:47;8.50;99.90
46440;DHT22;32138;50.966;6.968;2023-12-20T02:31:21;8.50;99.90
46440;DHT22;32138;50.966;6.968;2023-12-20T02:32:53;8.50;99.90
46440;DHT22;32138;50.966;6.968;2023-12-20T02:34:24;8.40;99.90
46440;DHT22;32138;50.966;6.968;2023-12-20T02:35:55;8.50;99.90
46440;DHT22;32138;50.966;6.968;2023-12-20T02:37:25;8.50;99.90
46440;DHT22;32138;50.966;6.968;2023-12-20T02:38:56;8.50;99.90
46440;DHT22;32138;50.966;6.968;2023-12-20T02:40:27;8.50;99.90
46440;DHT22;32138;50.966;6.968;2023-12-20T02:41:57;8.60;99.90
46440;DHT22;32138;50.966;6.968;2023-12-20T02:43:28;8.60;99.90
46440;DHT22;32138;50.966;6.968;2023-12-20T02:44:59;8.70;99.90
46440;DHT22;32138;50.966;6.968;2023-12-20T02:46:30;8.60;99.90
46440;DHT22;32138;50.966;6.968;2023-12-20T02:48:01;8.60;99.90
46440;DHT22;32138;50.966;6.968;2023-12-20T02:49:32;8.50;99.90
46440;DHT22;32138;50.966;6.968;2023-12-20T02:51:03;8.40;99.90
46440;DHT22;32138;50.966;6.968;2023-12-20T02:52:33;8.50;99.90
46440;DHT22;32138;50.966;6.968;2023-12-20T02:54:04;8.50;99.90
46440;DHT22;32138;50.966;6.968;2023-12-20T02:55:35;8.50;99.90
46440;DHT22;32138;50.966;6.968;2023-12-20T02:57:06;8.40;99.90
46440;DHT22;32138;50.966;6.968;2023-12-20T02:58:37;8.50;99.90
46440;DHT22;32138;50.966;6.968;2023-12-20T03:00:10;8.60;99.90
46440;DHT22;32138;50.966;6.968;2023-12-20T03:01:43;8.70;99.90
46440;DHT22;32138;50.966;6.968;2023-12-20T03:03:14;8.60;99.90
46440;DHT22;32138;50.966;6.968;2023-12-20T03:04:45;8.70;99.90
46440;DHT22;32138;50.966;6.968;2023-12-20T03:06:18;8.70;99.90
46440;DHT22;32138;50.966;6.968;2023-12-20T03:07:49;8.70;99.90
46440;DHT22;32138;50.966;6.968;2023-12-20T03:09:20;8.60;99.90
46440;DHT22;32138;50.966;6.968;2023-12-20T03:10:51;8.60;99.90
46440;DHT22;32138;50.966;6.968;2023-12-20T03:12:21;8.40;99.90
46440;DHT22;32138;50.966;6.968;2023-12-20T03:13:52;8.50;99.90
46440;DHT22;32138;50.966;6.968;2023-12-20T03:15:23;8.50;99.90
46440;DHT22;32138;50.966;6.968;2023-12-20T03:16:54;8.50;99.90
46440;DHT22;32138;50.966;6.968;2023-12-20T03:18:24;8.40;99.90
46440;DHT22;32138;50.966;6.968;2023-12-20T03:19:55;8.40;99.90
46440;DHT22;32138;50.966;6.968;2023-12-20T03:21:26;8.30;99.90
46440;DHT22;32138;50.966;6.968;2023-12-20T03:22:58;8.20;99.90
46440;DHT22;32138;50.966;6.968;2023-12-20T03:24:28;8.30;99.90
46440;DHT22;32138;50.966;6.968;2023-12-20T03:25:59;8.40;99.90
46440;DHT22;32138;50.966;6.968;2023-12-20T03:27:30;8.40;99.90
46440;DHT22;32138;50.966;6.968;2023-12-20T03:29:01;8.40;99.90
46440;DHT22;32138;50.966;6.968;2023-12-20T03:30:32;8.50;99.90
46440;DHT22;32138;50.966;6.968;2023-12-20T03:32:03;8.60;99.90
46440;DHT22;32138;50.966;6.968;2023-12-20T03:33:33;8.50;99.90
46440;DHT22;32138;50.966;6.968;2023-12-20T03:35:04;8.50;99.90
46440;DHT22;32138;50.966;6.968;2023-12-20T03:36:36;8.50;99.90
46440;DHT22;32138;50.966;6.968;2023-12-20T03:38:07;8.30;99.90
46440;DHT22;32138;50.966;6.968;2023-12-20T03:39:38;8.30;99.90
46440;DHT22;32138;50.966;6.968;2023-12-20T03:41:08;8.10;99.90
46440;DHT22;32138;50.966;6.968;2023-12-20T03:42:39;8.30;99.90
46440;DHT22;32138;50.966;6.968;2023-12-20T03:44:10;8.40;99.90
46440;DHT22;32138;50.966;6.968;2023-12-20T03:45:41;8.30;99.90
46440;DHT22;32138;50.966;6.968;2023-12-20T03:47:12;8.40;99.90
46440;DHT22;32138;50.966;6.968;2023-12-20T03:48:43;8.40;99.90
46440;DHT22;32138;50.966;6.968;2023-12-20T03:50:14;8.30;99.90
46440;DHT22;32138;50.966;6.968;2023-12-20T03:51:44;8.30;99.90
46440;DHT22;32138;50.966;6.968;2023-12-20T03:53:15;8.30;99.90
46440;DHT22;32138;50.966;6.968;2023-12-20T03:54:46;8.20;99.90
46440;DHT22;32138;50.966;6.968;2023-12-20T03:56:17;8.20;99.90
46440;DHT22;32138;50.966;6.968;2023-12-20T03:57:47;8.20;99.90
46440;DHT22;32138;50.966;6.968;2023-12-20T03:59:18;8.10;99.90
46440;DHT22;32138;50.966;6.968;2023-12-20T04:00:49;8.20;99.90
46440;DHT22;32138;50.966;6.968;2023-12-20T04:02:19;8.20;99.90
46440;DHT22;32138;50.966;6.968;2023-12-20T04:03:50;8.30;99.90
46440;DHT22;32138;50.966;6.968;2023-12-20T04:05:21;8.40;99.90
46440;DHT22;32138;50.966;6.968;2023-12-20T04:06:52;8.50;99.90
46440;DHT22;32138;50.966;6.968;2023-12-20T04:08:22;8.40;99.90
46440;DHT22;32138;50.966;6.968;2023-12-20T04:09:53;8.50;99.90
46440;DHT22;32138;50.966;6.968;2023-12-20T04:11:24;8.40;99.90
46440;DHT22;32138;50.966;6.968;2023-12-20T04:12:54;8.30;99.90
46440;DHT22;32138;50.966;6.968;2023-12-20T04:14:25;8.40;99.90
46440;DHT22;32138;50.966;6.968;2023-12-20T04:15:56;8.50;99.90
46440;DHT22;32138;50.966;6.968;2023-12-20T04:17:27;8.50;99.90
46440;DHT22;32138;50.966;6.968;2023-12-20T04:18:58;8.40;99.90
46440;DHT22;32138;50.966;6.968;2023-12-20T04:20:28;8.40;99.90
46440;DHT22;32138;50.966;6.968;2023-12-20T04:21:59;8.50;99.90
46440;DHT22;32138;50.966;6.968;2023-12-20T04:23:30;8.50;99.90
46440;DHT22;32138;50.966;6.968;2023-12-20T04:25:01;8.40;99.90
46440;DHT22;32138;50.966;6.968;2023-12-20T04:26:32;8.40;99.90
46440;DHT22;32138;50.966;6.968;2023-12-20T04:28:03;8.30;99.90
46440;DHT22;32138;50.966;6.968;2023-12-20T04:29:34;8.40;99.90
46440;DHT22;32138;50.966;6.968;2023-12-20T04:31:05;8.20;99.90
46440;DHT22;32138;50.966;6.968;2023-12-20T04:32:35;8.30;99.90
46440;DHT22;32138;50.966;6.968;2023-12-20T04:34:06;8.40;99.90
46440;DHT22;32138;50.966;6.968;2023-12-20T04:35:37;8.40;99.90
46440;DHT22;32138;50.966;6.968;2023-12-20T04:37:07;8.30;99.90
46440;DHT22;32138;50.966;6.968;2023-12-20T04:38:38;8.40;99.90
46440;DHT22;32138;50.966;6.968;2023-12-20T04:40:09;8.30;99.90
46440;DHT22;32138;50.966;6.968;2023-12-20T04:41:40;8.20;99.90
46440;DHT22;32138;50.966;6.968;2023-12-20T04:43:11;8.30;99.90
46440;DHT22;32138;50.966;6.968;2023-12-20T04:44:42;8.40;99.90
46440;DHT22;32138;50.966;6.968;2023-12-20T04:46:14;8.20;99.90
46440;DHT22;32138;50.966;6.968;2023-12-20T04:47:44;8.30;99.90
46440;DHT22;32138;50.966;6.968;2023-12-20T04:49:17;8.10;99.90
46440;DHT22;32138;50.966;6.968;2023-12-20T04:50:48;8.10;99.90
46440;DHT22;32138;50.966;6.968;2023-12-20T04:52:18;8.10;99.90
46440;DHT22;32138;50.966;6.968;2023-12-20T04:53:49;8.20;99.90
46440;DHT22;32138;50.966;6.968;2023-12-20T04:55:20;8.20;99.90
46440;DHT22;32138;50.966;6.968;2023-12-20T04:56:50;8.20;99.90
46440;DHT22;32138;50.966;6.968;2023-12-20T04:58:21;8.30;99.90
46440;DHT22;32138;50.966;6.968;2023-12-20T04:59:52;8.30;99.90
46440;DHT22;32138;50.966;6.968;2023-12-20T05:01:23;8.30;99.90
46440;DHT22;32138;50.966;6.968;2023-12-20T05:02:53;8.30;99.90
46440;DHT22;32138;50.966;6.968;2023-12-20T05:04:24;8.20;99.90
46440;DHT22;32138;50.966;6.968;2023-12-20T05:05:55;8.10;99.90
46440;DHT22;32138;50.966;6.968;2023-12-20T05:07:25;8.10;99.90
46440;DHT22;32138;50.966;6.968;2023-12-20T05:08:57;8.10;99.90
46440;DHT22;32138;50.966;6.968;2023-12-20T05:10:28;8.10;99.90
46440;DHT22;32138;50.966;6.968;2023-12-20T05:11:58;8.20;99.90
46440;DHT22;32138;50.966;6.968;2023-12-20T05:13:29;8.10;99.90
46440;DHT22;32138;50.966;6.968;2023-12-20T05:15:00;8.10;99.90
46440;DHT22;32138;50.966;6.968;2023-12-20T05:16:31;8.00;99.90
46440;DHT22;32138;50.966;6.968;2023-12-20T05:18:02;7.90;99.90
46440;DHT22;32138;50.966;6.968;2023-12-20T05:19:32;7.90;99.90
46440;DHT22;32138;50.966;6.968;2023-12-20T05:21:05;8.00;99.90
46440;DHT22;32138;50.966;6.968;2023-12-20T05:22:36;8.00;99.90
46440;DHT22;32138;50.966;6.968;2023-12-20T05:24:07;8.00;99.90
46440;DHT22;32138;50.966;6.968;2023-12-20T05:25:37;8.00;99.90
46440;DHT22;32138;50.966;6.968;2023-12-20T05:27:08;8.20;99.90
46440;DHT22;32138;50.966;6.968;2023-12-20T05:28:39;8.10;99.90
46440;DHT22;32138;50.966;6.968;2023-12-20T05:30:10;8.10;99.90
46440;DHT22;32138;50.966;6.968;2023-12-20T05:31:41;8.10;99.90
46440;DHT22;32138;50.966;6.968;2023-12-20T05:33:12;8.00;99.90
46440;DHT22;32138;50.966;6.968;2023-12-20T05:34:42;8.00;99.90
46440;DHT22;32138;50.966;6.968;2023-12-20T05:36:13;8.10;99.90
46440;DHT22;32138;50.966;6.968;2023-12-20T05:37:45;8.10;99.90
46440;DHT22;32138;50.966;6.968;2023-12-20T05:39:16;8.10;99.90
46440;DHT22;32138;50.966;6.968;2023-12-20T05:40:47;8.20;99.90
46440;DHT22;32138;50.966;6.968;2023-12-20T05:42:17;8.20;99.90
46440;DHT22;32138;50.966;6.968;2023-12-20T05:43:48;7.90;99.90
46440;DHT22;32138;50.966;6.968;2023-12-20T05:45:21;7.80;99.90
46440;DHT22;32138;50.966;6.968;2023-12-20T05:46:52;8.00;99.90
46440;DHT22;32138;50.966;6.968;2023-12-20T05:48:23;7.90;99.90
46440;DHT22;32138;50.966;6.968;2023-12-20T05:49:53;8.00;99.90
46440;DHT22;32138;50.966;6.968;2023-12-20T05:51:24;8.00;99.90
46440;DHT22;32138;50.966;6.968;2023-12-20T05:52:55;8.00;99.90
46440;DHT22;32138;50.966;6.968;2023-12-20T05:54:26;8.10;99.90
46440;DHT22;32138;50.966;6.968;2023-12-20T05:55:57;8.00;99.90
46440;DHT22;32138;50.966;6.968;2023-12-20T05:57:27;8.00;99.90
46440;DHT22;32138;50.966;6.968;2023-12-20T05:58:58;8.00;99.90
46440;DHT22;32138;50.966;6.968;2023-12-20T06:00:29;8.10;99.90
46440;DHT22;32138;50.966;6.968;2023-12-20T06:02:00;8.00;99.90
46440;DHT22;32138;50.966;6.968;2023-12-20T06:03:31;8.00;99.90
46440;DHT22;32138;50.966;6.968;2023-12-20T06:05:02;8.10;99.90
46440;DHT22;32138;50.966;6.968;2023-12-20T06:06:34;8.10;99.90
46440;DHT22;32138;50.966;6.968;2023-12-20T06:08:06;8.10;99.90
46440;DHT22;32138;50.966;6.968;2023-12-20T06:09:37;8.10;99.90
46440;DHT22;32138;50.966;6.968;2023-12-20T06:11:07;8.00;99.90
46440;DHT22;32138;50.966;6.968;2023-12-20T06:12:38;7.90;99.90
46440;DHT22;32138;50.966;6.968;2023-12-20T06:14:09;7.90;99.90
46440;DHT22;32138;50.966;6.968;2023-12-20T06:15:40;7.90;99.90
46440;DHT22;32138;50.966;6.968;2023-12-20T06:17:10;7.90;99.90
46440;DHT22;32138;50.966;6.968;2023-12-20T06:18:41;7.90;99.90
46440;DHT22;32138;50.966;6.968;2023-12-20T06:20:12;8.00;99.90
46440;DHT22;32138;50.966;6.968;2023-12-20T06:21:43;8.00;99.90
46440;DHT22;32138;50.966;6.968;2023-12-20T06:23:14;8.10;99.90
46440;DHT22;32138;50.966;6.968;2023-12-20T06:24:44;8.10;99.90
46440;DHT22;32138;50.966;6.968;2023-12-20T06:26:15;8.00;99.90
46440;DHT22;32138;50.966;6.968;2023-12-20T06:27:46;8.00;99.90
46440;DHT22;32138;50.966;6.968;2023-12-20T06:29:17;8.10;99.90
46440;DHT22;32138;50.966;6.968;2023-12-20T06:30:47;8.10;99.90
46440;DHT22;32138;50.966;6.968;2023-12-20T06:32:19;7.90;99.90
46440;DHT22;32138;50.966;6.968;2023-12-20T06:33:50;8.10;99.90
46440;DHT22;32138;50.966;6.968;2023-12-20T06:35:27;8.10;99.90
46440;DHT22;32138;50.966;6.968;2023-12-20T06:36:58;7.90;99.90
46440;DHT22;32138;50.966;6.968;2023-12-20T06:38:29;8.00;99.90
46440;DHT22;32138;50.966;6.968;2023-12-20T06:40:00;8.10;99.90
46440;DHT22;32138;50.966;6.968;2023-12-20T06:41:31;8.10;99.90
46440;DHT22;32138;50.966;6.968;2023-12-20T06:43:02;8.20;99.90
46440;DHT22;32138;50.966;6.968;2023-12-20T06:44:32;8.30;99.90
46440;DHT22;32138;50.966;6.968;2023-12-20T06:46:03;8.10;99.90
46440;DHT22;32138;50.966;6.968;2023-12-20T06:47:34;8.00;99.90
46440;DHT22;32138;50.966;6.968;2023-12-20T06:49:05;8.00;99.90
46440;DHT22;32138;50.966;6.968;2023-12-20T06:50:36;8.00;99.90
46440;DHT22;32138;50.966;6.968;2023-12-20T06:52:10;8.10;99.90
46440;DHT22;32138;50.966;6.968;2023-12-20T06:53:41;8.10;99.90
46440;DHT22;32138;50.966;6.968;2023-12-20T06:55:11;8.10;99.90
46440;DHT22;32138;50.966;6.968;2023-12-20T06:56:42;8.10;99.90
46440;DHT22;32138;50.966;6.968;2023-12-20T06:58:13;8.20;99.90
46440;DHT22;32138;50.966;6.968;2023-12-20T06:59:44;8.30;99.90
46440;DHT22;32138;50.966;6.968;2023-12-20T07:01:16;8.10;99.90
46440;DHT22;32138;50.966;6.968;2023-12-20T07:02:46;8.10;99.90
46440;DHT22;32138;50.966;6.968;2023-12-20T07:04:18;8.20;99.90
46440;DHT22;32138;50.966;6.968;2023-12-20T07:05:51;8.20;99.90
46440;DHT22;32138;50.966;6.968;2023-12-20T07:07:21;8.10;99.90
46440;DHT22;32138;50.966;6.968;2023-12-20T07:08:54;7.90;99.90
46440;DHT22;32138;50.966;6.968;2023-12-20T07:10:25;8.10;99.90
46440;DHT22;32138;50.966;6.968;2023-12-20T07:11:56;8.10;99.90
46440;DHT22;32138;50.966;6.968;2023-12-20T07:13:26;8.10;99.90
46440;DHT22;32138;50.966;6.968;2023-12-20T07:14:57;8.20;99.90
46440;DHT22;32138;50.966;6.968;2023-12-20T07:16:28;8.20;99.90
46440;DHT22;32138;50.966;6.968;2023-12-20T07:17:58;8.00;99.90
46440;DHT22;32138;50.966;6.968;2023-12-20T07:19:31;8.00;99.90
46440;DHT22;32138;50.966;6.968;2023-12-20T07:21:03;8.10;99.90
46440;DHT22;32138;50.966;6.968;2023-12-20T07:22:34;8.20;99.90
46440;DHT22;32138;50.966;6.968;2023-12-20T07:24:04;8.20;99.90
46440;DHT22;32138;50.966;6.968;2023-12-20T07:25:35;8.20;99.90
46440;DHT22;32138;50.966;6.968;2023-12-20T07:27:06;8.20;99.90
46440;DHT22;32138;50.966;6.968;2023-12-20T07:28:37;8.20;99.90
46440;DHT22;32138;50.966;6.968;2023-12-20T07:30:08;8.20;99.90
46440;DHT22;32138;50.966;6.968;2023-12-20T07:31:39;8.20;99.90
46440;DHT22;32138;50.966;6.968;2023-12-20T07:33:10;8.20;99.90
46440;DHT22;32138;50.966;6.968;2023-12-20T07:34:42;8.10;99.90
46440;DHT22;32138;50.966;6.968;2023-12-20T07:36:13;8.10;99.90
46440;DHT22;32138;50.966;6.968;2023-12-20T07:37:44;8.10;99.90
46440;DHT22;32138;50.966;6.968;2023-12-20T07:39:14;8.20;99.90
46440;DHT22;32138;50.966;6.968;2023-12-20T07:40:45;7.90;99.90
46440;DHT22;32138;50.966;6.968;2023-12-20T07:42:16;8.00;99.90
46440;DHT22;32138;50.966;6.968;2023-12-20T07:43:47;8.10;99.90
46440;DHT22;32138;50.966;6.968;2023-12-20T07:45:18;8.20;99.90
46440;DHT22;32138;50.966;6.968;2023-12-20T07:46:48;8.10;99.90
46440;DHT22;32138;50.966;6.968;2023-12-20T07:48:19;8.20;99.90
46440;DHT22;32138;50.966;6.968;2023-12-20T07:49:50;8.00;99.90
46440;DHT22;32138;50.966;6.968;2023-12-20T07:51:22;8.00;99.90
46440;DHT22;32138;50.966;6.968;2023-12-20T07:52:52;8.10;99.90
46440;DHT22;32138;50.966;6.968;2023-12-20T07:54:23;7.80;99.90
46440;DHT22;32138;50.966;6.968;2023-12-20T07:55:55;8.00;99.90
46440;DHT22;32138;50.966;6.968;2023-12-20T07:57:29;7.90;99.90
46440;DHT22;32138;50.966;6.968;2023-12-20T07:59:00;8.00;99.90
46440;DHT22;32138;50.966;6.968;2023-12-20T08:00:31;8.10;99.90
46440;DHT22;32138;50.966;6.968;2023-12-20T08:02:02;8.10;99.90
46440;DHT22;32138;50.966;6.968;2023-12-20T08:03:33;8.20;99.90
46440;DHT22;32138;50.966;6.968;2023-12-20T08:05:04;8.30;99.90
46440;DHT22;32138;50.966;6.968;2023-12-20T08:06:34;8.20;99.90
46440;DHT22;32138;50.966;6.968;2023-12-20T08:08:06;8.10;99.90
46440;DHT22;32138;50.966;6.968;2023-12-20T08:09:37;8.20;99.90
46440;DHT22;32138;50.966;6.968;2023-12-20T08:11:08;8.30;99.90
46440;DHT22;32138;50.966;6.968;2023-12-20T08:12:38;8.40;99.90
46440;DHT22;32138;50.966;6.968;2023-12-20T08:14:10;8.30;99.90
46440;DHT22;32138;50.966;6.968;2023-12-20T08:15:41;8.10;99.90
46440;DHT22;32138;50.966;6.968;2023-12-20T08:17:11;8.20;99.90
46440;DHT22;32138;50.966;6.968;2023-12-20T08:18:43;8.30;99.90
46440;DHT22;32138;50.966;6.968;2023-12-20T08:20:14;8.40;99.90
46440;DHT22;32138;50.966;6.968;2023-12-20T08:21:45;8.10;99.90
46440;DHT22;32138;50.966;6.968;2023-12-20T08:23:15;8.10;99.90
46440;DHT22;32138;50.966;6.968;2023-12-20T08:24:46;8.30;99.90
46440;DHT22;32138;50.966;6.968;2023-12-20T08:26:19;8.30;99.90
46440;DHT22;32138;50.966;6.968;2023-12-20T08:27:54;8.10;99.90
46440;DHT22;32138;50.966;6.968;2023-12-20T08:29:25;8.30;99.90
46440;DHT22;32138;50.966;6.968;2023-12-20T08:30:55;8.30;99.90
46440;DHT22;32138;50.966;6.968;2023-12-20T08:32:26;8.40;99.90
46440;DHT22;32138;50.966;6.968;2023-12-20T08:33:57;8.20;99.90
46440;DHT22;32138;50.966;6.968;2023-12-20T08:35:28;8.30;99.90
46440;DHT22;32138;50.966;6.968;2023-12-20T08:36:59;8.40;99.90
46440;DHT22;32138;50.966;6.968;2023-12-20T08:38:29;8.30;99.90
46440;DHT22;32138;50.966;6.968;2023-12-20T08:40:00;8.30;99.90
46440;DHT22;32138;50.966;6.968;2023-12-20T08:41:31;8.10;99.90
46440;DHT22;32138;50.966;6.968;2023-12-20T08:43:02;8.10;99.90
46440;DHT22;32138;50.966;6.968;2023-12-20T08:44:33;8.10;99.90
46440;DHT22;32138;50.966;6.968;2023-12-20T08:46:04;8.30;99.90
46440;DHT22;32138;50.966;6.968;2023-12-20T08:47:34;8.30;99.90
46440;DHT22;32138;50.966;6.968;2023-12-20T08:49:05;8.40;99.90
46440;DHT22;32138;50.966;6.968;2023-12-20T08:50:36;8.40;99.90
46440;DHT22;32138;50.966;6.968;2023-12-20T08:52:07;8.40;99.90
46440;DHT22;32138;50.966;6.968;2023-12-20T08:53:38;8.40;99.90
46440;DHT22;32138;50.966;6.968;2023-12-20T08:55:09;8.40;99.90
46440;DHT22;32138;50.966;6.968;2023-12-20T08:56:40;8.20;99.90
46440;DHT22;32138;50.966;6.968;2023-12-20T08:58:11;8.30;99.90
46440;DHT22;32138;50.966;6.968;2023-12-20T08:59:42;8.40;99.90
46440;DHT22;32138;50.966;6.968;2023-12-20T09:01:14;8.50;99.90
46440;DHT22;32138;50.966;6.968;2023-12-20T09:02:45;8.40;99.90
46440;DHT22;32138;50.966;6.968;2023-12-20T09:04:15;8.30;99.90
46440;DHT22;32138;50.966;6.968;2023-12-20T09:05:46;8.30;99.90
46440;DHT22;32138;50.966;6.968;2023-12-20T09:07:26;8.30;99.90
46440;DHT22;32138;50.966;6.968;2023-12-20T09:08:58;8.20;99.90
46440;DHT22;32138;50.966;6.968;2023-12-20T09:10:28;8.20;99.90
46440;DHT22;32138;50.966;6.968;2023-12-20T09:11:59;8.30;99.90
46440;DHT22;32138;50.966;6.968;2023-12-20T09:13:30;8.30;99.90
46440;DHT22;32138;50.966;6.968;2023-12-20T09:15:02;8.20;99.90
46440;DHT22;32138;50.966;6.968;2023-12-20T09:16:33;8.20;99.90
46440;DHT22;32138;50.966;6.968;2023-12-20T09:18:04;8.20;99.90
46440;DHT22;32138;50.966;6.968;2023-12-20T09:19:35;8.10;99.90
46440;DHT22;32138;50.966;6.968;2023-12-20T09:21:06;7.90;99.90
46440;DHT22;32138;50.966;6.968;2023-12-20T09:22:36;7.80;99.90
46440;DHT22;32138;50.966;6.968;2023-12-20T09:24:08;7.90;99.90
46440;DHT22;32138;50.966;6.968;2023-12-20T09:25:39;8.00;99.90
46440;DHT22;32138;50.966;6.968;2023-12-20T09:27:10;8.20;99.90
46440;DHT22;32138;50.966;6.968;2023-12-20T09:28:41;8.10;99.90
46440;DHT22;32138;50.966;6.968;2023-12-20T09:30:12;8.30;99.90
46440;DHT22;32138;50.966;6.968;2023-12-20T09:31:42;8.30;99.90
46440;DHT22;32138;50.966;6.968;2023-12-20T09:33:14;8.50;99.90
46440;DHT22;32138;50.966;6.968;2023-12-20T09:34:47;8.40;99.90
46440;DHT22;32138;50.966;6.968;2023-12-20T09:36:18;8.40;99.90
46440;DHT22;32138;50.966;6.968;2023-12-20T09:37:49;8.30;99.90
46440;DHT22;32138;50.966;6.968;2023-12-20T09:39:21;8.20;99.90
46440;DHT22;32138;50.966;6.968;2023-12-20T09:40:52;8.20;99.90
46440;DHT22;32138;50.966;6.968;2023-12-20T09:42:37;8.30;99.90
46440;DHT22;32138;50.966;6.968;2023-12-20T09:44:15;8.30;99.90